Springfield, Illinois
Current Conditions -  °F | °C
As of 9:52 PM on Saturday 24 Jan 2015 (Local Time) from KSPI Reporting Station
Clear Clear  
Wind Chill:   Ceiling: Unl
Heat Index:   Visibility: 10mi
Dew Point:   Wind: 8mph
Humidity: 70%   Direction: 200°SSW
Pressure: 29.68"   Gusts: NA
Location:  39.8°N, 89.64°W
Report Text: KSPI 250352Z 20007KT 10SM CLR 06/01 A2968 RMK AO2 SLP054 T00560006
Loading
Personal Weather Stations






























Interactive Weather Map New forecast layout! Learn more

10-Day Weather Forecast

Advertisements
Track Severe Weather on mobile